sensor_id;sensor_type;location;lat;lon;timestamp;temperature;humidity
18297;DHT22;18066;52.106;5.534;2023-05-31T00:01:15;12.10;99.90
18297;DHT22;18066;52.106;5.534;2023-05-31T00:03:41;12.00;99.90
18297;DHT22;18066;52.106;5.534;2023-05-31T00:06:09;12.10;99.90
18297;DHT22;18066;52.106;5.534;2023-05-31T00:08:36;12.00;99.90
18297;DHT22;18066;52.106;5.534;2023-05-31T00:11:03;12.00;99.90
18297;DHT22;18066;52.106;5.534;2023-05-31T00:13:31;12.00;99.90
18297;DHT22;18066;52.106;5.534;2023-05-31T00:15:58;11.90;99.90
18297;DHT22;18066;52.106;5.534;2023-05-31T00:18:25;11.90;99.90
18297;DHT22;18066;52.106;5.534;2023-05-31T00:20:52;11.80;99.90
18297;DHT22;18066;52.106;5.534;2023-05-31T00:23:19;11.80;99.90
18297;DHT22;18066;52.106;5.534;2023-05-31T00:25:46;11.80;99.90
18297;DHT22;18066;52.106;5.534;2023-05-31T00:28:12;11.80;99.90
18297;DHT22;18066;52.106;5.534;2023-05-31T00:30:41;11.80;99.90
18297;DHT22;18066;52.106;5.534;2023-05-31T00:33:08;11.60;99.90
18297;DHT22;18066;52.106;5.534;2023-05-31T00:35:35;11.70;99.90
18297;DHT22;18066;52.106;5.534;2023-05-31T00:38:03;11.70;99.90
18297;DHT22;18066;52.106;5.534;2023-05-31T00:40:30;11.50;99.90
18297;DHT22;18066;52.106;5.534;2023-05-31T00:42:57;11.70;99.90
18297;DHT22;18066;52.106;5.534;2023-05-31T00:45:24;11.60;99.90
18297;DHT22;18066;52.106;5.534;2023-05-31T00:47:52;11.60;99.90
18297;DHT22;18066;52.106;5.534;2023-05-31T00:50:19;11.70;99.90
18297;DHT22;18066;52.106;5.534;2023-05-31T00:52:48;11.70;99.90
18297;DHT22;18066;52.106;5.534;2023-05-31T00:55:17;11.70;99.90
18297;DHT22;18066;52.106;5.534;2023-05-31T00:57:43;11.60;99.90
18297;DHT22;18066;52.106;5.534;2023-05-31T01:00:11;11.60;99.90
18297;DHT22;18066;52.106;5.534;2023-05-31T01:02:40;11.50;99.90
18297;DHT22;18066;52.106;5.534;2023-05-31T01:05:10;11.50;99.90
18297;DHT22;18066;52.106;5.534;2023-05-31T01:07:37;11.50;99.90
18297;DHT22;18066;52.106;5.534;2023-05-31T01:10:06;11.40;99.90
18297;DHT22;18066;52.106;5.534;2023-05-31T01:12:40;11.50;99.90
18297;DHT22;18066;52.106;5.534;2023-05-31T01:15:12;11.40;99.90
18297;DHT22;18066;52.106;5.534;2023-05-31T01:17:45;11.50;99.90
18297;DHT22;18066;52.106;5.534;2023-05-31T01:20:16;11.50;99.90
18297;DHT22;18066;52.106;5.534;2023-05-31T01:22:55;11.50;99.90
18297;DHT22;18066;52.106;5.534;2023-05-31T01:25:30;11.50;99.90
18297;DHT22;18066;52.106;5.534;2023-05-31T01:28:05;11.50;99.90
18297;DHT22;18066;52.106;5.534;2023-05-31T01:30:33;11.50;99.90
18297;DHT22;18066;52.106;5.534;2023-05-31T01:33:00;11.50;99.90
18297;DHT22;18066;52.106;5.534;2023-05-31T01:35:29;11.50;99.90
18297;DHT22;18066;52.106;5.534;2023-05-31T01:37:55;11.50;99.90
18297;DHT22;18066;52.106;5.534;2023-05-31T01:40:22;11.50;99.90
18297;DHT22;18066;52.106;5.534;2023-05-31T01:42:49;11.50;99.90
18297;DHT22;18066;52.106;5.534;2023-05-31T01:45:19;11.60;99.90
18297;DHT22;18066;52.106;5.534;2023-05-31T01:47:47;11.50;99.90
18297;DHT22;18066;52.106;5.534;2023-05-31T01:50:15;11.50;99.90
18297;DHT22;18066;52.106;5.534;2023-05-31T01:52:44;11.50;99.90
18297;DHT22;18066;52.106;5.534;2023-05-31T01:55:10;11.40;99.90
18297;DHT22;18066;52.106;5.534;2023-05-31T01:57:38;11.30;99.90
18297;DHT22;18066;52.106;5.534;2023-05-31T02:00:10;11.30;99.90
18297;DHT22;18066;52.106;5.534;2023-05-31T02:02:40;11.30;99.90
18297;DHT22;18066;52.106;5.534;2023-05-31T02:05:09;11.30;99.90
18297;DHT22;18066;52.106;5.534;2023-05-31T02:07:38;11.30;99.90
18297;DHT22;18066;52.106;5.534;2023-05-31T02:10:07;11.30;99.90
18297;DHT22;18066;52.106;5.534;2023-05-31T02:12:34;11.30;99.90
18297;DHT22;18066;52.106;5.534;2023-05-31T02:15:01;11.20;99.90
18297;DHT22;18066;52.106;5.534;2023-05-31T02:17:28;11.20;99.90
18297;DHT22;18066;52.106;5.534;2023-05-31T02:19:59;11.20;99.90
18297;DHT22;18066;52.106;5.534;2023-05-31T02:22:27;11.20;99.90
18297;DHT22;18066;52.106;5.534;2023-05-31T02:24:54;11.20;99.90
18297;DHT22;18066;52.106;5.534;2023-05-31T02:27:22;11.10;99.90
18297;DHT22;18066;52.106;5.534;2023-05-31T02:29:48;11.10;99.90
18297;DHT22;18066;52.106;5.534;2023-05-31T02:32:15;11.10;99.90
18297;DHT22;18066;52.106;5.534;2023-05-31T02:34:42;11.00;99.90
18297;DHT22;18066;52.106;5.534;2023-05-31T02:37:10;11.10;99.90
18297;DHT22;18066;52.106;5.534;2023-05-31T02:39:37;11.10;99.90
18297;DHT22;18066;52.106;5.534;2023-05-31T02:42:04;11.10;99.90
18297;DHT22;18066;52.106;5.534;2023-05-31T02:44:31;11.00;99.90
18297;DHT22;18066;52.106;5.534;2023-05-31T02:46:58;11.00;99.90
18297;DHT22;18066;52.106;5.534;2023-05-31T02:49:25;11.00;99.90
18297;DHT22;18066;52.106;5.534;2023-05-31T02:51:52;11.00;99.90
18297;DHT22;18066;52.106;5.534;2023-05-31T02:54:20;11.10;99.90
18297;DHT22;18066;52.106;5.534;2023-05-31T02:56:47;11.10;99.90
18297;DHT22;18066;52.106;5.534;2023-05-31T02:59:14;11.10;99.90
18297;DHT22;18066;52.106;5.534;2023-05-31T03:01:41;11.10;99.90
18297;DHT22;18066;52.106;5.534;2023-05-31T03:04:08;11.10;99.90
18297;DHT22;18066;52.106;5.534;2023-05-31T03:06:34;11.00;99.90
18297;DHT22;18066;52.106;5.534;2023-05-31T03:09:01;11.00;99.90
18297;DHT22;18066;52.106;5.534;2023-05-31T03:11:30;11.20;99.90
18297;DHT22;18066;52.106;5.534;2023-05-31T03:13:57;11.10;99.90
18297;DHT22;18066;52.106;5.534;2023-05-31T03:16:23;11.10;99.90
18297;DHT22;18066;52.106;5.534;2023-05-31T03:18:51;10.90;99.90
18297;DHT22;18066;52.106;5.534;2023-05-31T03:21:18;10.70;99.90
18297;DHT22;18066;52.106;5.534;2023-05-31T03:23:44;10.80;99.90
18297;DHT22;18066;52.106;5.534;2023-05-31T03:26:11;10.80;99.90
18297;DHT22;18066;52.106;5.534;2023-05-31T03:28:39;10.80;99.90
18297;DHT22;18066;52.106;5.534;2023-05-31T03:31:06;10.80;99.90
18297;DHT22;18066;52.106;5.534;2023-05-31T03:33:33;11.00;99.90
18297;DHT22;18066;52.106;5.534;2023-05-31T03:36:01;10.80;99.90
18297;DHT22;18066;52.106;5.534;2023-05-31T03:38:28;11.00;99.90
18297;DHT22;18066;52.106;5.534;2023-05-31T03:40:55;11.00;99.90
18297;DHT22;18066;52.106;5.534;2023-05-31T03:43:22;11.00;99.90
18297;DHT22;18066;52.106;5.534;2023-05-31T03:45:50;11.00;99.90
18297;DHT22;18066;52.106;5.534;2023-05-31T03:48:16;10.90;99.90
18297;DHT22;18066;52.106;5.534;2023-05-31T03:50:44;10.80;99.90
18297;DHT22;18066;52.106;5.534;2023-05-31T03:53:11;10.80;99.90
18297;DHT22;18066;52.106;5.534;2023-05-31T03:55:37;10.80;99.90
18297;DHT22;18066;52.106;5.534;2023-05-31T03:58:04;10.80;99.90
18297;DHT22;18066;52.106;5.534;2023-05-31T04:00:31;10.80;99.90
18297;DHT22;18066;52.106;5.534;2023-05-31T04:02:59;10.80;99.90
18297;DHT22;18066;52.106;5.534;2023-05-31T04:05:26;10.70;99.90
18297;DHT22;18066;52.106;5.534;2023-05-31T04:07:53;10.60;99.90
18297;DHT22;18066;52.106;5.534;2023-05-31T04:10:20;10.80;99.90
18297;DHT22;18066;52.106;5.534;2023-05-31T04:12:46;10.70;99.90
18297;DHT22;18066;52.106;5.534;2023-05-31T04:15:13;10.80;99.90
18297;DHT22;18066;52.106;5.534;2023-05-31T04:17:40;10.70;99.90
18297;DHT22;18066;52.106;5.534;2023-05-31T04:20:10;10.80;99.90
18297;DHT22;18066;52.106;5.534;2023-05-31T04:22:37;10.90;99.90
18297;DHT22;18066;52.106;5.534;2023-05-31T04:25:04;10.90;99.90
18297;DHT22;18066;52.106;5.534;2023-05-31T04:27:31;10.90;99.90
18297;DHT22;18066;52.106;5.534;2023-05-31T04:29:59;10.90;99.90
18297;DHT22;18066;52.106;5.534;2023-05-31T04:32:26;10.90;99.90
18297;DHT22;18066;52.106;5.534;2023-05-31T04:34:53;11.00;99.90
18297;DHT22;18066;52.106;5.534;2023-05-31T04:37:24;11.00;99.90
18297;DHT22;18066;52.106;5.534;2023-05-31T04:39:52;11.20;99.90
18297;DHT22;18066;52.106;5.534;2023-05-31T04:42:19;11.20;99.90
18297;DHT22;18066;52.106;5.534;2023-05-31T04:44:46;11.30;99.90
18297;DHT22;18066;52.106;5.534;2023-05-31T04:47:14;11.40;99.90
18297;DHT22;18066;52.106;5.534;2023-05-31T04:49:42;11.30;99.90
18297;DHT22;18066;52.106;5.534;2023-05-31T04:52:09;11.60;99.90
18297;DHT22;18066;52.106;5.534;2023-05-31T04:54:37;11.40;99.90
18297;DHT22;18066;52.106;5.534;2023-05-31T04:57:04;11.40;99.90
18297;DHT22;18066;52.106;5.534;2023-05-31T04:59:31;11.40;99.90
18297;DHT22;18066;52.106;5.534;2023-05-31T05:01:58;11.50;99.90
18297;DHT22;18066;52.106;5.534;2023-05-31T05:04:25;11.60;99.90
18297;DHT22;18066;52.106;5.534;2023-05-31T05:06:52;11.70;99.90
18297;DHT22;18066;52.106;5.534;2023-05-31T05:09:19;11.60;99.90
18297;DHT22;18066;52.106;5.534;2023-05-31T05:11:48;11.90;99.90
18297;DHT22;18066;52.106;5.534;2023-05-31T05:14:15;11.90;99.90
18297;DHT22;18066;52.106;5.534;2023-05-31T05:16:41;11.90;99.90
18297;DHT22;18066;52.106;5.534;2023-05-31T05:19:08;11.90;99.90
18297;DHT22;18066;52.106;5.534;2023-05-31T05:21:35;12.00;99.90
18297;DHT22;18066;52.106;5.534;2023-05-31T05:24:02;12.10;99.90
18297;DHT22;18066;52.106;5.534;2023-05-31T05:26:29;12.20;99.90
18297;DHT22;18066;52.106;5.534;2023-05-31T05:28:57;12.20;99.90
18297;DHT22;18066;52.106;5.534;2023-05-31T05:31:24;12.40;99.90
18297;DHT22;18066;52.106;5.534;2023-05-31T05:33:51;12.30;99.90
18297;DHT22;18066;52.106;5.534;2023-05-31T05:36:18;12.60;99.90
18297;DHT22;18066;52.106;5.534;2023-05-31T05:38:45;12.40;99.90
18297;DHT22;18066;52.106;5.534;2023-05-31T05:41:12;12.50;99.90
18297;DHT22;18066;52.106;5.534;2023-05-31T05:43:39;12.60;99.90
18297;DHT22;18066;52.106;5.534;2023-05-31T05:46:07;12.70;99.90
18297;DHT22;18066;52.106;5.534;2023-05-31T05:48:34;12.80;99.90
18297;DHT22;18066;52.106;5.534;2023-05-31T05:51:01;13.10;99.90
18297;DHT22;18066;52.106;5.534;2023-05-31T05:53:28;12.90;99.90
18297;DHT22;18066;52.106;5.534;2023-05-31T05:55:55;13.10;99.90
18297;DHT22;18066;52.106;5.534;2023-05-31T05:58:22;13.30;99.90
18297;DHT22;18066;52.106;5.534;2023-05-31T06:00:49;13.30;99.90
18297;DHT22;18066;52.106;5.534;2023-05-31T06:03:17;13.40;99.90
18297;DHT22;18066;52.106;5.534;2023-05-31T06:05:44;13.50;99.90
18297;DHT22;18066;52.106;5.534;2023-05-31T06:08:11;13.60;99.90
18297;DHT22;18066;52.106;5.534;2023-05-31T06:10:38;13.60;99.90
18297;DHT22;18066;52.106;5.534;2023-05-31T06:13:06;13.60;99.90
18297;DHT22;18066;52.106;5.534;2023-05-31T06:15:33;13.60;99.90
18297;DHT22;18066;52.106;5.534;2023-05-31T06:18:00;13.60;99.90
18297;DHT22;18066;52.106;5.534;2023-05-31T06:20:28;13.70;99.90
18297;DHT22;18066;52.106;5.534;2023-05-31T06:22:55;13.80;99.90
18297;DHT22;18066;52.106;5.534;2023-05-31T06:25:22;13.90;99.90
18297;DHT22;18066;52.106;5.534;2023-05-31T06:27:49;14.10;99.90
18297;DHT22;18066;52.106;5.534;2023-05-31T06:30:16;14.20;99.90
18297;DHT22;18066;52.106;5.534;2023-05-31T06:32:43;14.30;99.90
18297;DHT22;18066;52.106;5.534;2023-05-31T06:35:10;14.50;99.90
18297;DHT22;18066;52.106;5.534;2023-05-31T06:37:38;14.50;99.90
18297;DHT22;18066;52.106;5.534;2023-05-31T06:40:06;14.60;99.90
18297;DHT22;18066;52.106;5.534;2023-05-31T06:42:34;14.70;99.90
18297;DHT22;18066;52.106;5.534;2023-05-31T06:45:01;14.70;99.90
18297;DHT22;18066;52.106;5.534;2023-05-31T06:47:28;14.90;99.90
18297;DHT22;18066;52.106;5.534;2023-05-31T06:49:55;15.00;99.90
18297;DHT22;18066;52.106;5.534;2023-05-31T06:52:22;15.40;99.90
18297;DHT22;18066;52.106;5.534;2023-05-31T06:54:50;15.30;99.90
18297;DHT22;18066;52.106;5.534;2023-05-31T06:57:17;15.40;99.90
18297;DHT22;18066;52.106;5.534;2023-05-31T06:59:44;15.50;99.90
18297;DHT22;18066;52.106;5.534;2023-05-31T07:02:10;15.80;99.90
18297;DHT22;18066;52.106;5.534;2023-05-31T07:04:37;15.90;99.90
18297;DHT22;18066;52.106;5.534;2023-05-31T07:07:04;15.90;99.90
18297;DHT22;18066;52.106;5.534;2023-05-31T07:09:32;15.90;99.90
18297;DHT22;18066;52.106;5.534;2023-05-31T07:12:00;16.00;99.90
18297;DHT22;18066;52.106;5.534;2023-05-31T07:14:28;16.00;99.90
18297;DHT22;18066;52.106;5.534;2023-05-31T07:16:55;16.10;99.90
18297;DHT22;18066;52.106;5.534;2023-05-31T07:19:22;16.10;99.90
18297;DHT22;18066;52.106;5.534;2023-05-31T07:21:49;16.30;99.90
18297;DHT22;18066;52.106;5.534;2023-05-31T07:24:15;16.50;99.90
18297;DHT22;18066;52.106;5.534;2023-05-31T07:26:42;16.60;99.90
18297;DHT22;18066;52.106;5.534;2023-05-31T07:29:10;16.70;99.90
18297;DHT22;18066;52.106;5.534;2023-05-31T07:31:37;16.80;99.90
18297;DHT22;18066;52.106;5.534;2023-05-31T07:34:04;17.00;99.90
18297;DHT22;18066;52.106;5.534;2023-05-31T07:36:31;17.10;99.90
18297;DHT22;18066;52.106;5.534;2023-05-31T07:38:58;17.30;99.90
18297;DHT22;18066;52.106;5.534;2023-05-31T07:41:25;17.20;99.90
18297;DHT22;18066;52.106;5.534;2023-05-31T07:43:52;17.40;99.90
18297;DHT22;18066;52.106;5.534;2023-05-31T07:46:21;17.60;99.90
18297;DHT22;18066;52.106;5.534;2023-05-31T07:48:48;17.70;99.90
18297;DHT22;18066;52.106;5.534;2023-05-31T07:51:15;17.80;99.90
18297;DHT22;18066;52.106;5.534;2023-05-31T07:53:42;17.90;99.90
18297;DHT22;18066;52.106;5.534;2023-05-31T07:56:09;18.00;99.90
18297;DHT22;18066;52.106;5.534;2023-05-31T07:58:36;17.90;99.90
18297;DHT22;18066;52.106;5.534;2023-05-31T08:01:03;17.80;99.90
18297;DHT22;18066;52.106;5.534;2023-05-31T08:03:31;17.90;99.90
18297;DHT22;18066;52.106;5.534;2023-05-31T08:05:58;18.00;99.90
18297;DHT22;18066;52.106;5.534;2023-05-31T08:08:24;18.30;99.90
18297;DHT22;18066;52.106;5.534;2023-05-31T08:10:52;18.30;99.90
18297;DHT22;18066;52.106;5.534;2023-05-31T08:13:19;18.40;99.90
18297;DHT22;18066;52.106;5.534;2023-05-31T08:15:46;18.60;99.90
18297;DHT22;18066;52.106;5.534;2023-05-31T08:18:13;18.70;99.90
18297;DHT22;18066;52.106;5.534;2023-05-31T08:20:41;18.80;99.90
18297;DHT22;18066;52.106;5.534;2023-05-31T08:23:08;18.90;99.90
18297;DHT22;18066;52.106;5.534;2023-05-31T08:25:35;18.90;99.90
18297;DHT22;18066;52.106;5.534;2023-05-31T08:28:04;19.00;99.90
18297;DHT22;18066;52.106;5.534;2023-05-31T08:30:31;19.10;99.90
18297;DHT22;18066;52.106;5.534;2023-05-31T08:32:57;19.20;99.90
18297;DHT22;18066;52.106;5.534;2023-05-31T08:35:24;19.20;99.90
18297;DHT22;18066;52.106;5.534;2023-05-31T08:37:53;19.40;99.90
18297;DHT22;18066;52.106;5.534;2023-05-31T08:40:20;19.40;99.90
18297;DHT22;18066;52.106;5.534;2023-05-31T08:42:52;19.40;99.90
18297;DHT22;18066;52.106;5.534;2023-05-31T08:45:21;19.50;99.90
18297;DHT22;18066;52.106;5.534;2023-05-31T08:47:55;19.60;99.90
18297;DHT22;18066;52.106;5.534;2023-05-31T08:50:26;19.60;99.90
18297;DHT22;18066;52.106;5.534;2023-05-31T08:52:56;19.70;99.90
18297;DHT22;18066;52.106;5.534;2023-05-31T08:55:24;19.90;99.90
18297;DHT22;18066;52.106;5.534;2023-05-31T08:57:52;20.10;99.90
18297;DHT22;18066;52.106;5.534;2023-05-31T09:00:20;20.30;99.90
18297;DHT22;18066;52.106;5.534;2023-05-31T09:02:48;20.30;99.90
18297;DHT22;18066;52.106;5.534;2023-05-31T09:05:16;20.40;99.90
18297;DHT22;18066;52.106;5.534;2023-05-31T09:07:43;20.50;99.90
18297;DHT22;18066;52.106;5.534;2023-05-31T09:10:11;20.60;99.90
18297;DHT22;18066;52.106;5.534;2023-05-31T09:12:40;20.70;99.90
18297;DHT22;18066;52.106;5.534;2023-05-31T09:15:07;20.80;99.90
18297;DHT22;18066;52.106;5.534;2023-05-31T09:17:34;20.80;99.90
18297;DHT22;18066;52.106;5.534;2023-05-31T09:20:02;21.00;99.90
18297;DHT22;18066;52.106;5.534;2023-05-31T09:22:29;21.10;99.90
18297;DHT22;18066;52.106;5.534;2023-05-31T09:24:57;21.10;99.90
18297;DHT22;18066;52.106;5.534;2023-05-31T09:27:33;21.20;99.90
18297;DHT22;18066;52.106;5.534;2023-05-31T09:30:04;21.30;99.90
18297;DHT22;18066;52.106;5.534;2023-05-31T09:32:31;21.40;99.90
18297;DHT22;18066;52.106;5.534;2023-05-31T09:35:09;21.60;99.90
18297;DHT22;18066;52.106;5.534;2023-05-31T09:37:42;21.70;99.90
18297;DHT22;18066;52.106;5.534;2023-05-31T09:40:12;21.70;99.90
18297;DHT22;18066;52.106;5.534;2023-05-31T09:42:46;21.70;99.90
18297;DHT22;18066;52.106;5.534;2023-05-31T09:45:13;21.50;99.90
18297;DHT22;18066;52.106;5.534;2023-05-31T09:47:40;21.60;99.90
18297;DHT22;18066;52.106;5.534;2023-05-31T09:50:09;21.80;99.90
18297;DHT22;18066;52.106;5.534;2023-05-31T09:52:36;21.90;99.90
18297;DHT22;18066;52.106;5.534;2023-05-31T09:55:08;22.00;99.90
18297;DHT22;18066;52.106;5.534;2023-05-31T09:57:37;22.00;99.90
18297;DHT22;18066;52.106;5.534;2023-05-31T10:00:09;22.10;99.90
18297;DHT22;18066;52.106;5.534;2023-05-31T10:02:41;21.90;99.90
18297;DHT22;18066;52.106;5.534;2023-05-31T10:05:09;22.00;99.90
18297;DHT22;18066;52.106;5.534;2023-05-31T10:07:38;22.00;99.90
18297;DHT22;18066;52.106;5.534;2023-05-31T10:10:06;22.20;99.90
18297;DHT22;18066;52.106;5.534;2023-05-31T10:12:37;22.40;99.90
18297;DHT22;18066;52.106;5.534;2023-05-31T10:15:10;22.50;99.90
18297;DHT22;18066;52.106;5.534;2023-05-31T10:17:44;22.60;99.90
18297;DHT22;18066;52.106;5.534;2023-05-31T10:20:15;22.60;99.90
18297;DHT22;18066;52.106;5.534;2023-05-31T10:22:43;22.70;99.90
18297;DHT22;18066;52.106;5.534;2023-05-31T10:25:17;22.70;99.90
18297;DHT22;18066;52.106;5.534;2023-05-31T10:27:45;22.90;99.90
18297;DHT22;18066;52.106;5.534;2023-05-31T10:30:18;23.00;99.90
18297;DHT22;18066;52.106;5.534;2023-05-31T10:32:55;23.20;99.90
18297;DHT22;18066;52.106;5.534;2023-05-31T10:35:26;23.40;99.90
18297;DHT22;18066;52.106;5.534;2023-05-31T10:37:53;23.20;99.90
18297;DHT22;18066;52.106;5.534;2023-05-31T10:40:26;23.20;99.90
18297;DHT22;18066;52.106;5.534;2023-05-31T10:42:59;23.20;99.90
18297;DHT22;18066;52.106;5.534;2023-05-31T10:45:33;23.00;99.90
18297;DHT22;18066;52.106;5.534;2023-05-31T10:48:10;23.10;99.90
18297;DHT22;18066;52.106;5.534;2023-05-31T10:50:51;23.20;99.90
18297;DHT22;18066;52.106;5.534;2023-05-31T10:53:18;23.10;99.90
18297;DHT22;18066;52.106;5.534;2023-05-31T10:55:47;23.10;99.90
18297;DHT22;18066;52.106;5.534;2023-05-31T10:58:25;23.20;99.90
18297;DHT22;18066;52.106;5.534;2023-05-31T11:00:54;23.10;99.90
18297;DHT22;18066;52.106;5.534;2023-05-31T11:03:22;23.30;99.90
18297;DHT22;18066;52.106;5.534;2023-05-31T11:05:56;23.30;99.90
18297;DHT22;18066;52.106;5.534;2023-05-31T11:08:24;23.50;99.90
18297;DHT22;18066;52.106;5.534;2023-05-31T11:10:51;23.60;99.90
18297;DHT22;18066;52.106;5.534;2023-05-31T11:13:18;23.70;99.90
18297;DHT22;18066;52.106;5.534;2023-05-31T11:15:46;23.70;99.90
18297;DHT22;18066;52.106;5.534;2023-05-31T11:18:23;23.60;99.90
18297;DHT22;18066;52.106;5.534;2023-05-31T11:20:49;23.50;99.90
18297;DHT22;18066;52.106;5.534;2023-05-31T11:23:26;23.70;99.90
18297;DHT22;18066;52.106;5.534;2023-05-31T11:26:08;23.70;99.90
18297;DHT22;18066;52.106;5.534;2023-05-31T11:28:51;23.70;99.90
18297;DHT22;18066;52.106;5.534;2023-05-31T11:31:57;23.90;99.90
18297;DHT22;18066;52.106;5.534;2023-05-31T11:34:27;24.10;99.90
18297;DHT22;18066;52.106;5.534;2023-05-31T11:36:57;24.20;99.90
18297;DHT22;18066;52.106;5.534;2023-05-31T11:39:24;24.30;99.90
18297;DHT22;18066;52.106;5.534;2023-05-31T11:41:53;24.30;99.90
18297;DHT22;18066;52.106;5.534;2023-05-31T11:44:25;24.30;99.90
18297;DHT22;18066;52.106;5.534;2023-05-31T11:46:59;24.40;99.90
18297;DHT22;18066;52.106;5.534;2023-05-31T11:49:29;24.50;99.90
18297;DHT22;18066;52.106;5.534;2023-05-31T11:51:57;24.60;99.90
18297;DHT22;18066;52.106;5.534;2023-05-31T11:54:25;24.60;99.90
18297;DHT22;18066;52.106;5.534;2023-05-31T11:56:56;24.50;99.90
18297;DHT22;18066;52.106;5.534;2023-05-31T11:59:24;24.60;99.90
18297;DHT22;18066;52.106;5.534;2023-05-31T12:01:51;24.80;99.90
18297;DHT22;18066;52.106;5.534;2023-05-31T12:04:18;24.90;99.90
18297;DHT22;18066;52.106;5.534;2023-05-31T12:06:46;24.90;99.90
18297;DHT22;18066;52.106;5.534;2023-05-31T12:09:13;25.00;99.90
18297;DHT22;18066;52.106;5.534;2023-05-31T12:11:39;25.10;99.90
18297;DHT22;18066;52.106;5.534;2023-05-31T12:14:06;25.10;99.90
18297;DHT22;18066;52.106;5.534;2023-05-31T12:16:33;25.20;99.90
18297;DHT22;18066;52.106;5.534;2023-05-31T12:19:00;25.10;99.90
18297;DHT22;18066;52.106;5.534;2023-05-31T12:21:27;25.30;99.90
18297;DHT22;18066;52.106;5.534;2023-05-31T12:23:57;25.30;99.90
18297;DHT22;18066;52.106;5.534;2023-05-31T12:26:24;25.30;99.90
18297;DHT22;18066;52.106;5.534;2023-05-31T12:28:53;25.20;99.90
18297;DHT22;18066;52.106;5.534;2023-05-31T12:31:22;25.10;99.90
18297;DHT22;18066;52.106;5.534;2023-05-31T12:33:57;25.10;99.90
18297;DHT22;18066;52.106;5.534;2023-05-31T12:36:25;25.30;99.90
18297;DHT22;18066;52.106;5.534;2023-05-31T12:38:57;25.50;99.90
18297;DHT22;18066;52.106;5.534;2023-05-31T12:41:25;25.30;99.90
18297;DHT22;18066;52.106;5.534;2023-05-31T12:43:54;25.50;99.90
18297;DHT22;18066;52.106;5.534;2023-05-31T12:46:20;25.70;99.90
18297;DHT22;18066;52.106;5.534;2023-05-31T12:48:47;25.90;99.90
18297;DHT22;18066;52.106;5.534;2023-05-31T12:51:20;26.00;99.90
18297;DHT22;18066;52.106;5.534;2023-05-31T12:53:47;26.10;99.90
18297;DHT22;18066;52.106;5.534;2023-05-31T12:56:15;26.10;99.90
18297;DHT22;18066;52.106;5.534;2023-05-31T12:58:42;26.10;99.90
18297;DHT22;18066;52.106;5.534;2023-05-31T13:01:09;26.00;99.90
18297;DHT22;18066;52.106;5.534;2023-05-31T13:03:36;26.00;99.90
18297;DHT22;18066;52.106;5.534;2023-05-31T13:06:03;25.80;99.90
18297;DHT22;18066;52.106;5.534;2023-05-31T13:08:30;25.60;99.90
18297;DHT22;18066;52.106;5.534;2023-05-31T13:10:57;25.60;99.90
18297;DHT22;18066;52.106;5.534;2023-05-31T13:13:25;25.60;99.90
18297;DHT22;18066;52.106;5.534;2023-05-31T13:15:52;25.80;99.90
18297;DHT22;18066;52.106;5.534;2023-05-31T13:18:19;25.80;99.90
18297;DHT22;18066;52.106;5.534;2023-05-31T13:20:46;25.70;99.90
18297;DHT22;18066;52.106;5.534;2023-05-31T13:23:12;25.70;99.90
18297;DHT22;18066;52.106;5.534;2023-05-31T13:25:39;25.70;99.90
18297;DHT22;18066;52.106;5.534;2023-05-31T13:28:06;25.70;99.90
18297;DHT22;18066;52.106;5.534;2023-05-31T13:30:34;25.80;99.90
18297;DHT22;18066;52.106;5.534;2023-05-31T13:33:01;26.00;99.90
18297;DHT22;18066;52.106;5.534;2023-05-31T13:35:28;26.20;99.90
18297;DHT22;18066;52.106;5.534;2023-05-31T13:37:55;26.10;99.90
18297;DHT22;18066;52.106;5.534;2023-05-31T13:40:22;25.60;99.90
18297;DHT22;18066;52.106;5.534;2023-05-31T13:42:48;25.20;99.90
18297;DHT22;18066;52.106;5.534;2023-05-31T13:45:16;25.20;99.90
18297;DHT22;18066;52.106;5.534;2023-05-31T13:47:44;25.50;99.90
18297;DHT22;18066;52.106;5.534;2023-05-31T13:50:11;25.70;99.90
18297;DHT22;18066;52.106;5.534;2023-05-31T13:52:38;25.90;99.90
18297;DHT22;18066;52.106;5.534;2023-05-31T13:55:06;26.10;99.90
18297;DHT22;18066;52.106;5.534;2023-05-31T13:57:33;26.10;99.90
18297;DHT22;18066;52.106;5.534;2023-05-31T13:59:59;26.40;99.90
18297;DHT22;18066;52.106;5.534;2023-05-31T14:02:29;26.80;99.90
18297;DHT22;18066;52.106;5.534;2023-05-31T14:04:59;26.90;99.90
18297;DHT22;18066;52.106;5.534;2023-05-31T14:07:28;26.90;99.90
18297;DHT22;18066;52.106;5.534;2023-05-31T14:09:55;26.90;99.90
18297;DHT22;18066;52.106;5.534;2023-05-31T14:12:22;27.30;99.90
18297;DHT22;18066;52.106;5.534;2023-05-31T14:14:49;27.70;99.90
18297;DHT22;18066;52.106;5.534;2023-05-31T14:17:15;28.20;99.90
18297;DHT22;18066;52.106;5.534;2023-05-31T14:19:42;28.90;99.90
18297;DHT22;18066;52.106;5.534;2023-05-31T14:22:10;29.00;99.90
18297;DHT22;18066;52.106;5.534;2023-05-31T14:24:37;28.90;99.90
18297;DHT22;18066;52.106;5.534;2023-05-31T14:27:04;28.90;99.90
18297;DHT22;18066;52.106;5.534;2023-05-31T14:29:32;29.20;99.90
18297;DHT22;18066;52.106;5.534;2023-05-31T14:31:59;29.50;99.90
18297;DHT22;18066;52.106;5.534;2023-05-31T14:34:25;29.40;99.90
18297;DHT22;18066;52.106;5.534;2023-05-31T14:36:52;29.80;99.90
18297;DHT22;18066;52.106;5.534;2023-05-31T14:39:20;30.10;99.90
18297;DHT22;18066;52.106;5.534;2023-05-31T14:41:47;30.80;99.90
18297;DHT22;18066;52.106;5.534;2023-05-31T14:44:14;31.00;99.90
18297;DHT22;18066;52.106;5.534;2023-05-31T14:46:41;30.60;99.90
18297;DHT22;18066;52.106;5.534;2023-05-31T14:49:07;30.40;99.90
18297;DHT22;18066;52.106;5.534;2023-05-31T14:51:34;31.20;99.90
18297;DHT22;18066;52.106;5.534;2023-05-31T14:54:01;31.50;99.90
18297;DHT22;18066;52.106;5.534;2023-05-31T14:56:29;32.10;99.90
18297;DHT22;18066;52.106;5.534;2023-05-31T14:58:56;33.00;99.90
18297;DHT22;18066;52.106;5.534;2023-05-31T15:01:22;33.00;99.90
18297;DHT22;18066;52.106;5.534;2023-05-31T15:03:49;33.20;99.90
18297;DHT22;18066;52.106;5.534;2023-05-31T15:06:16;33.00;99.90
18297;DHT22;18066;52.106;5.534;2023-05-31T15:08:43;32.30;99.90
18297;DHT22;18066;52.106;5.534;2023-05-31T15:11:09;32.50;99.90
18297;DHT22;18066;52.106;5.534;2023-05-31T15:13:38;33.00;99.90
18297;DHT22;18066;52.106;5.534;2023-05-31T15:16:05;33.40;99.90
18297;DHT22;18066;52.106;5.534;2023-05-31T15:18:31;33.30;99.90
18297;DHT22;18066;52.106;5.534;2023-05-31T15:20:58;33.00;99.90
18297;DHT22;18066;52.106;5.534;2023-05-31T15:23:25;33.30;99.90
18297;DHT22;18066;52.106;5.534;2023-05-31T15:25:52;34.40;99.90
18297;DHT22;18066;52.106;5.534;2023-05-31T15:28:18;34.70;99.90
18297;DHT22;18066;52.106;5.534;2023-05-31T15:30:47;35.00;99.90
18297;DHT22;18066;52.106;5.534;2023-05-31T15:33:13;34.10;99.00
18297;DHT22;18066;52.106;5.534;2023-05-31T15:35:40;33.60;99.00